Aérodrome :
LOGIN :

S'inscrire | Disclaimer

   EN    FR    IT 

 










Légende :    VFR   VFR Marginal   IFR   IFR Intensif   IFR Très Intensif
Visi : 
Plafond : 
>= 8 km
>= 3000ft
5 à 8 km
1000 à 3000 ft
1500m à 5 km
500 à 1000 ft
800 à 1500m
200 à 500 ft
< 800m
< 200 ft
Symboles :   Orages  Brouillard  Fortes neiges  Fortes précipitations  Vent > 20 kt
SIGMETs :   Divers  Orages  Givrage  Turbulence  Onde Orograph.  Cendres Volcan.






- Altitude de l'aérodrome : 375 ft
- Code IATA : MST


EHBK - Maastricht Aachen

DERNIER METAR :
  • 200855Z AUTO 02004KT 9999 -RA BKN020 OVC027 11/11 Q1008 REDZRA TEMPO 7000 RA

METARs EXPIRÉS :
  • 200825Z AUTO 03003KT 9999 DZ OVC022 11/11 Q1008 TEMPO 7000 RA
  • 200755Z AUTO 05004KT 9999 DZ OVC045 12/11 Q1008 NOSIG
  • 200725Z AUTO 03004KT 350V140 9999 BKN047 12/11 Q1008 NOSIG
  • 200655Z AUTO VRB02KT 9999 BKN043 11/11 Q1007 NOSIG

TAF TAF EHBK
Valide du 20 à 06h jusqu'au 21 à 12h UTC


200516Z 2006/2112 12003KT 9999 -RA SCT040
BECMG 2008/2011 6000 RA BKN012
TEMPO 2008/2016 4000 RADZ
BECMG 2011/2014 BKN008
BECMG 2013/2016 04010KT
BECMG 2016/2019 2000 BR -DZ BKN004
PROB40 2019/2103 0800 FG BKN002
BECMG 2100/2103 12005KT 4000 BR BKN012
BECMG 2103/2106 7000 NSW BKN020
BECMG 2106/2109 21012KT 9999



MET'MAP, la Météo Aéronautique d'un coup d'oeil ! - Copyright ORBIFLY Décembre 2007 - Disclaimer

ORBIFLY MET'MAP TEAM :

Programmation & Développement : Alexandra Zaïnal
Conception & Développement : Baudouin d'Aumeries
Co-Programmation & Développement : Marc-Olivier Méhu
Soutien technique & logistique : Manuel Goepfert

Contact : metmap@orbifly.com




SOURCES & CREDITS :

   NOAA